createdAt,value
2023-02-15T00:00:07.760Z,0
2023-02-15T00:03:07.814Z,0
2023-02-15T00:06:08.215Z,0
2023-02-15T00:09:07.663Z,0
2023-02-15T00:12:07.545Z,0
2023-02-15T00:15:07.517Z,0
2023-02-15T00:18:07.536Z,0
2023-02-15T00:21:07.563Z,0
2023-02-15T00:24:07.602Z,0
2023-02-15T00:27:07.576Z,0
2023-02-15T00:30:07.976Z,0
2023-02-15T00:33:07.506Z,0
2023-02-15T00:36:08.338Z,0
2023-02-15T00:39:07.605Z,0
2023-02-15T00:42:07.614Z,0
2023-02-15T00:45:07.521Z,0
2023-02-15T00:48:07.514Z,0
2023-02-15T00:51:07.584Z,0
2023-02-15T00:54:07.590Z,0
2023-02-15T00:57:07.580Z,0
2023-02-15T01:00:07.608Z,0
2023-02-15T01:03:07.568Z,0
2023-02-15T01:06:08.432Z,0
2023-02-15T01:09:07.554Z,0
2023-02-15T01:12:07.494Z,0
2023-02-15T01:15:07.600Z,0
2023-02-15T01:18:07.616Z,0
2023-02-15T01:21:07.582Z,0
2023-02-15T01:24:07.567Z,0
2023-02-15T01:27:07.556Z,0
2023-02-15T01:30:07.937Z,0
2023-02-15T01:33:07.504Z,0
2023-02-15T01:36:08.441Z,0
2023-02-15T01:39:07.563Z,0
2023-02-15T01:42:07.564Z,0
2023-02-15T01:45:07.572Z,0
2023-02-15T01:48:07.680Z,0
2023-02-15T01:51:08.910Z,0
2023-02-15T01:54:07.596Z,0
2023-02-15T01:57:07.657Z,0
2023-02-15T02:00:07.627Z,0
2023-02-15T02:03:08.002Z,0
2023-02-15T02:06:08.506Z,0
2023-02-15T02:09:07.571Z,0
2023-02-15T02:12:07.535Z,0
2023-02-15T02:15:07.529Z,0
2023-02-15T02:18:07.530Z,0
2023-02-15T02:21:07.548Z,0
2023-02-15T02:24:07.511Z,0
2023-02-15T02:27:07.577Z,0
2023-02-15T02:30:07.774Z,0
2023-02-15T02:33:07.430Z,0
2023-02-15T02:36:08.722Z,0
2023-02-15T02:39:07.596Z,0
2023-02-15T02:42:07.538Z,0
2023-02-15T02:45:07.608Z,0
2023-02-15T02:48:07.612Z,0
2023-02-15T02:51:07.600Z,0
2023-02-15T02:54:07.529Z,0
2023-02-15T02:57:07.582Z,0
2023-02-15T03:00:07.572Z,0
2023-02-15T03:03:07.788Z,0
2023-02-15T03:06:08.657Z,0
2023-02-15T03:09:07.529Z,0
2023-02-15T03:12:07.650Z,0
2023-02-15T03:15:07.686Z,0
2023-02-15T03:18:07.630Z,0
2023-02-15T03:21:07.573Z,0
2023-02-15T03:24:07.594Z,0
2023-02-15T03:27:07.565Z,0
2023-02-15T03:30:07.897Z,0
2023-02-15T03:33:07.606Z,0
2023-02-15T03:36:08.540Z,0
2023-02-15T03:39:07.509Z,0
2023-02-15T03:42:07.571Z,0
2023-02-15T03:45:07.572Z,0
2023-02-15T03:48:07.556Z,0
2023-02-15T03:51:07.521Z,0
2023-02-15T03:54:07.524Z,0
2023-02-15T03:57:07.528Z,0
2023-02-15T04:00:07.715Z,0
2023-02-15T04:03:07.771Z,0
2023-02-15T04:06:08.670Z,0
2023-02-15T04:09:07.571Z,0
2023-02-15T04:12:07.542Z,0
2023-02-15T04:15:07.624Z,0
2023-02-15T04:18:07.573Z,0
2023-02-15T04:21:07.539Z,0
2023-02-15T04:24:07.538Z,0
2023-02-15T04:27:07.503Z,0
2023-02-15T04:30:07.730Z,0
2023-02-15T04:33:07.533Z,0
2023-02-15T04:36:08.409Z,0
2023-02-15T04:39:07.490Z,0
2023-02-15T04:42:07.549Z,0
2023-02-15T04:45:07.549Z,0
2023-02-15T04:48:07.502Z,0
2023-02-15T04:51:07.604Z,0
2023-02-15T04:54:07.547Z,0
2023-02-15T04:57:07.724Z,0
2023-02-15T05:00:08.370Z,0
2023-02-15T05:03:07.523Z,0
2023-02-15T05:06:08.470Z,0
2023-02-15T05:09:07.545Z,0
2023-02-15T05:12:07.522Z,0
2023-02-15T05:15:07.544Z,0
2023-02-15T05:18:07.498Z,0
2023-02-15T05:21:07.553Z,0
2023-02-15T05:24:07.502Z,0
2023-02-15T05:27:07.550Z,0
2023-02-15T05:30:08.363Z,0
2023-02-15T05:33:07.557Z,0
2023-02-15T05:36:10.224Z,0
2023-02-15T05:39:07.671Z,0
2023-02-15T05:42:07.538Z,0
2023-02-15T05:45:07.572Z,0
2023-02-15T05:48:07.567Z,0
2023-02-15T05:51:07.600Z,0
2023-02-15T05:54:07.505Z,0
2023-02-15T05:57:07.501Z,0
2023-02-15T06:00:07.698Z,3
2023-02-15T06:03:07.626Z,3
2023-02-15T06:06:08.827Z,7
2023-02-15T06:09:07.525Z,13
2023-02-15T06:12:07.583Z,23
2023-02-15T06:15:07.544Z,37
2023-02-15T06:18:07.555Z,57
2023-02-15T06:21:07.597Z,87
2023-02-15T06:24:07.598Z,127
2023-02-15T06:27:07.525Z,183
2023-02-15T06:30:08.174Z,250
2023-02-15T06:33:07.559Z,330
2023-02-15T06:36:08.841Z,423
2023-02-15T06:39:07.600Z,527
2023-02-15T06:42:07.680Z,643
2023-02-15T06:45:10.730Z,777
2023-02-15T06:48:07.634Z,923
2023-02-15T06:51:07.574Z,1083
2023-02-15T06:54:07.591Z,1223
2023-02-15T06:57:07.603Z,1383
2023-02-15T07:00:07.689Z,1463
2023-02-15T07:03:07.525Z,1587
2023-02-15T07:06:08.912Z,1693
2023-02-15T07:09:07.621Z,1800
2023-02-15T07:12:07.588Z,1913
2023-02-15T07:15:07.720Z,2023
2023-02-15T07:18:07.591Z,2137
2023-02-15T07:21:07.643Z,2233
2023-02-15T07:24:07.589Z,2373
2023-02-15T07:27:07.589Z,2450
2023-02-15T07:30:08.657Z,2520
2023-02-15T07:33:11.677Z,2633
2023-02-15T07:36:08.756Z,2717
2023-02-15T07:39:07.598Z,2843
2023-02-15T07:42:07.684Z,2923
2023-02-15T07:45:07.651Z,3023
2023-02-15T07:48:07.571Z,3117
2023-02-15T07:51:07.608Z,3157
2023-02-15T07:54:07.695Z,3207
2023-02-15T07:57:07.640Z,3313
2023-02-15T08:00:08.378Z,3400
2023-02-15T08:03:07.984Z,3490
2023-02-15T08:06:08.772Z,3490
2023-02-15T08:09:07.576Z,3493
2023-02-15T08:12:07.616Z,3517
2023-02-15T08:15:07.663Z,3630
2023-02-15T08:18:07.656Z,3870
2023-02-15T08:21:07.627Z,3833
2023-02-15T08:24:07.655Z,3763
2023-02-15T08:27:10.163Z,3833
2023-02-15T08:30:08.020Z,4093
2023-02-15T08:33:07.671Z,3993
2023-02-15T08:36:07.571Z,4000
2023-02-15T08:39:07.608Z,4047
2023-02-15T08:42:07.626Z,4177
2023-02-15T08:45:07.593Z,4213
2023-02-15T08:48:07.723Z,4267
2023-02-15T08:51:08.816Z,4320
2023-02-15T08:54:07.616Z,4530
2023-02-15T08:57:07.675Z,4577
2023-02-15T09:00:07.844Z,5297
2023-02-15T09:03:07.556Z,26680
2023-02-15T09:06:07.618Z,27383
2023-02-15T09:09:07.645Z,27880
2023-02-15T09:12:07.589Z,28033
2023-02-15T09:15:07.637Z,28043
2023-02-15T09:18:07.737Z,28990
2023-02-15T09:21:08.615Z,29460
2023-02-15T09:24:07.586Z,29877
2023-02-15T09:27:07.841Z,30273
2023-02-15T09:30:08.111Z,30237
2023-02-15T09:33:07.621Z,28160
2023-02-15T09:36:07.661Z,27553
2023-02-15T09:39:07.677Z,27420
2023-02-15T09:42:07.649Z,27077
2023-02-15T09:45:07.603Z,27127
2023-02-15T09:48:07.647Z,27327
2023-02-15T09:51:08.770Z,27697
2023-02-15T09:54:07.689Z,27680
2023-02-15T09:57:07.619Z,28077
2023-02-15T10:00:07.669Z,28337
2023-02-15T10:03:10.601Z,28533
2023-02-15T10:06:07.612Z,28730
2023-02-15T10:09:07.596Z,28987
2023-02-15T10:12:07.743Z,29370
2023-02-15T10:15:07.612Z,29420
2023-02-15T10:18:07.586Z,29687
2023-02-15T10:21:08.884Z,29920
2023-02-15T10:24:07.756Z,30537
2023-02-15T10:27:07.594Z,30810
2023-02-15T10:30:08.141Z,31253
2023-02-15T10:33:07.551Z,31583
2023-02-15T10:36:07.697Z,31737
2023-02-15T10:39:07.533Z,32087
2023-02-15T10:42:07.596Z,31053
2023-02-15T10:45:07.666Z,31493
2023-02-15T10:48:07.636Z,32420
2023-02-15T10:51:08.621Z,32507
2023-02-15T10:54:07.683Z,32660
2023-02-15T10:57:07.631Z,32797
2023-02-15T11:00:07.740Z,32917
2023-02-15T11:03:07.613Z,33023
2023-02-15T11:06:07.666Z,33070
2023-02-15T11:09:07.749Z,33297
2023-02-15T11:12:07.566Z,33283
2023-02-15T11:15:07.611Z,33350
2023-02-15T11:18:07.635Z,33443
2023-02-15T11:21:08.794Z,33567
2023-02-15T11:24:07.572Z,33623
2023-02-15T11:27:07.900Z,33597
2023-02-15T11:30:08.054Z,33710
2023-02-15T11:33:09.488Z,33730
2023-02-15T11:36:07.637Z,33857
2023-02-15T11:39:07.657Z,34020
2023-02-15T11:42:07.611Z,34197
2023-02-15T11:45:07.715Z,34237
2023-02-15T11:48:07.600Z,34220
2023-02-15T11:51:08.656Z,34200
2023-02-15T11:54:07.600Z,34137
2023-02-15T11:57:07.551Z,34183
2023-02-15T12:00:07.780Z,34030
2023-02-15T12:03:07.821Z,33923
2023-02-15T12:06:07.659Z,33833
2023-02-15T12:09:07.584Z,32407
2023-02-15T12:12:07.579Z,33370
2023-02-15T12:15:07.700Z,32933
2023-02-15T12:18:07.591Z,31807
2023-02-15T12:21:08.536Z,31527
2023-02-15T12:24:07.631Z,31253
2023-02-15T12:27:07.704Z,32033
2023-02-15T12:30:08.064Z,32200
2023-02-15T12:33:07.680Z,32037
2023-02-15T12:36:08.939Z,32073
2023-02-15T12:39:07.642Z,31747
2023-02-15T12:42:07.582Z,31717
2023-02-15T12:45:07.579Z,31193
2023-02-15T12:48:07.569Z,30857
2023-02-15T12:51:07.860Z,31247
2023-02-15T12:54:07.635Z,31000
2023-02-15T12:57:07.631Z,30790
2023-02-15T13:00:07.647Z,30333
2023-02-15T13:03:07.641Z,14723
2023-02-15T13:06:07.640Z,5307
2023-02-15T13:09:07.706Z,5587
2023-02-15T13:12:07.587Z,26980
2023-02-15T13:15:07.703Z,29250
2023-02-15T13:18:07.589Z,28800
2023-02-15T13:21:08.992Z,28587
2023-02-15T13:24:07.959Z,28360
2023-02-15T13:27:22.838Z,27837
2023-02-15T13:30:07.954Z,27457
2023-02-15T13:33:07.637Z,27323
2023-02-15T13:36:07.655Z,26950
2023-02-15T13:39:07.617Z,26553
2023-02-15T13:42:07.648Z,26197
2023-02-15T13:45:07.670Z,25180
2023-02-15T13:48:07.557Z,23893
2023-02-15T13:51:07.591Z,22813
2023-02-15T13:54:07.580Z,22727
2023-02-15T13:57:07.658Z,23383
2023-02-15T14:00:08.606Z,22820
2023-02-15T14:03:07.629Z,22570
2023-02-15T14:06:07.617Z,21970
2023-02-15T14:09:07.619Z,22727
2023-02-15T14:12:07.556Z,22797
2023-02-15T14:15:07.704Z,21333
2023-02-15T14:18:07.654Z,22617
2023-02-15T14:21:08.826Z,21987
2023-02-15T14:24:07.761Z,19683
2023-02-15T14:27:09.989Z,16307
2023-02-15T14:30:08.478Z,13220
2023-02-15T14:33:07.611Z,13133
2023-02-15T14:36:07.651Z,15140
2023-02-15T14:39:10.585Z,13597
2023-02-15T14:42:07.687Z,16013
2023-02-15T14:45:07.627Z,13587
2023-02-15T14:48:07.625Z,15600
2023-02-15T14:51:08.755Z,17793
2023-02-15T14:54:07.600Z,12010
2023-02-15T14:57:07.809Z,7067
2023-02-15T15:00:07.789Z,5877
2023-02-15T15:03:07.583Z,6350
2023-02-15T15:06:13.128Z,6907
2023-02-15T15:09:07.587Z,8713
2023-02-15T15:12:07.589Z,8907
2023-02-15T15:15:07.576Z,8040
2023-02-15T15:18:07.581Z,7763
2023-02-15T15:21:07.637Z,7827
2023-02-15T15:24:07.594Z,6987
2023-02-15T15:27:07.728Z,6150
2023-02-15T15:30:07.923Z,5183
2023-02-15T15:33:07.698Z,4580
2023-02-15T15:36:08.606Z,4220
2023-02-15T15:39:07.691Z,3993
2023-02-15T15:42:07.655Z,3897
2023-02-15T15:45:07.558Z,3643
2023-02-15T15:48:14.378Z,3513
2023-02-15T15:51:07.629Z,3117
2023-02-15T15:54:07.551Z,3163
2023-02-15T15:57:07.602Z,2750
2023-02-15T16:00:07.779Z,2270
2023-02-15T16:03:08.519Z,2023
2023-02-15T16:06:09.240Z,1723
2023-02-15T16:09:07.653Z,1417
2023-02-15T16:12:07.570Z,1153
2023-02-15T16:15:07.587Z,933
2023-02-15T16:18:07.762Z,750
2023-02-15T16:21:07.624Z,590
2023-02-15T16:24:07.720Z,453
2023-02-15T16:27:07.740Z,350
2023-02-15T16:30:07.862Z,273
2023-02-15T16:33:07.541Z,217
2023-02-15T16:36:08.969Z,170
2023-02-15T16:39:07.555Z,127
2023-02-15T16:42:07.628Z,90
2023-02-15T16:45:07.582Z,60
2023-02-15T16:48:07.537Z,40
2023-02-15T16:51:09.226Z,23
2023-02-15T16:54:07.508Z,13
2023-02-15T16:57:07.585Z,7
2023-02-15T17:00:07.756Z,3
2023-02-15T17:03:07.489Z,3
2023-02-15T17:06:07.562Z,0
2023-02-15T17:09:07.573Z,0
2023-02-15T17:12:07.749Z,0
2023-02-15T17:15:07.515Z,0
2023-02-15T17:18:07.563Z,0
2023-02-15T17:21:07.599Z,0
2023-02-15T17:24:07.553Z,0
2023-02-15T17:27:07.696Z,0
2023-02-15T17:30:08.336Z,0
2023-02-15T17:33:07.609Z,0
2023-02-15T17:36:07.592Z,0
2023-02-15T17:39:07.633Z,0
2023-02-15T17:42:07.555Z,0
2023-02-15T17:45:07.847Z,0
2023-02-15T17:48:07.538Z,0
2023-02-15T17:51:10.652Z,0
2023-02-15T17:54:07.575Z,0
2023-02-15T17:57:07.708Z,0
2023-02-15T18:00:07.597Z,0
2023-02-15T18:03:07.547Z,0
2023-02-15T18:06:07.619Z,0
2023-02-15T18:09:07.595Z,0
2023-02-15T18:12:07.712Z,0
2023-02-15T18:15:07.579Z,0
2023-02-15T18:18:07.554Z,0
2023-02-15T18:21:10.472Z,0
2023-02-15T18:24:07.640Z,0
2023-02-15T18:27:07.542Z,0
2023-02-15T18:30:08.035Z,0
2023-02-15T18:33:07.637Z,0
2023-02-15T18:36:07.987Z,0
2023-02-15T18:39:15.607Z,0
2023-02-15T18:42:07.604Z,0
2023-02-15T18:45:07.556Z,0
2023-02-15T18:48:07.588Z,0
2023-02-15T18:51:08.946Z,0
2023-02-15T18:54:07.588Z,0
2023-02-15T18:57:07.651Z,0
2023-02-15T19:00:07.522Z,0
2023-02-15T19:03:07.599Z,0
2023-02-15T19:06:07.523Z,0
2023-02-15T19:09:07.586Z,0
2023-02-15T19:12:07.582Z,0
2023-02-15T19:15:07.584Z,0
2023-02-15T19:18:07.610Z,0
2023-02-15T19:21:07.515Z,0
2023-02-15T19:24:07.559Z,0
2023-02-15T19:27:07.601Z,0
2023-02-15T19:30:08.125Z,0
2023-02-15T19:33:07.541Z,0
2023-02-15T19:36:08.340Z,0
2023-02-15T19:39:07.584Z,0
2023-02-15T19:42:07.555Z,0
2023-02-15T19:45:07.603Z,0
2023-02-15T19:48:07.617Z,0
2023-02-15T19:51:07.536Z,0
2023-02-15T19:54:07.637Z,0
2023-02-15T19:57:07.556Z,0
2023-02-15T20:00:28.470Z,0
2023-02-15T20:03:07.536Z,0
2023-02-15T20:06:07.557Z,0
2023-02-15T20:09:07.575Z,0
2023-02-15T20:12:07.569Z,0
2023-02-15T20:15:07.550Z,0
2023-02-15T20:18:07.580Z,0
2023-02-15T20:21:08.879Z,0
2023-02-15T20:24:07.578Z,0
2023-02-15T20:27:07.579Z,0
2023-02-15T20:30:08.080Z,0
2023-02-15T20:33:07.681Z,0
2023-02-15T20:36:07.524Z,0
2023-02-15T20:39:07.557Z,0
2023-02-15T20:42:07.537Z,0
2023-02-15T20:45:07.611Z,0
2023-02-15T20:48:07.546Z,0
2023-02-15T20:51:08.743Z,0
2023-02-15T20:54:07.548Z,0
2023-02-15T20:57:07.516Z,0
2023-02-15T21:00:07.606Z,0
2023-02-15T21:03:07.554Z,0
2023-02-15T21:06:07.491Z,0
2023-02-15T21:09:07.525Z,0
2023-02-15T21:12:07.581Z,0
2023-02-15T21:15:07.598Z,0
2023-02-15T21:18:07.519Z,0
2023-02-15T21:21:08.641Z,0
2023-02-15T21:24:07.522Z,0
2023-02-15T21:27:07.518Z,0
2023-02-15T21:30:07.884Z,0
2023-02-15T21:33:07.529Z,0
2023-02-15T21:36:07.558Z,0
2023-02-15T21:39:07.569Z,0
2023-02-15T21:42:07.552Z,0
2023-02-15T21:45:07.755Z,0
2023-02-15T21:48:07.571Z,0
2023-02-15T21:51:08.382Z,0
2023-02-15T21:54:07.525Z,0
2023-02-15T21:57:07.608Z,0
2023-02-15T22:00:07.647Z,0
2023-02-15T22:03:07.646Z,0
2023-02-15T22:06:07.540Z,0
2023-02-15T22:09:07.550Z,0
2023-02-15T22:12:07.591Z,0
2023-02-15T22:15:07.572Z,0
2023-02-15T22:18:07.607Z,0
2023-02-15T22:21:09.125Z,0
2023-02-15T22:24:07.537Z,0
2023-02-15T22:27:07.576Z,0
2023-02-15T22:30:07.862Z,0
2023-02-15T22:33:09.465Z,0
2023-02-15T22:36:07.540Z,0
2023-02-15T22:39:07.548Z,0
2023-02-15T22:42:07.492Z,0
2023-02-15T22:45:10.331Z,0
2023-02-15T22:48:07.556Z,0
2023-02-15T22:51:08.652Z,0
2023-02-15T22:54:07.594Z,0
2023-02-15T22:57:07.692Z,0
2023-02-15T23:00:08.098Z,0
2023-02-15T23:03:07.510Z,0
2023-02-15T23:06:07.575Z,0
2023-02-15T23:09:07.622Z,0
2023-02-15T23:12:07.532Z,0
2023-02-15T23:15:07.645Z,0
2023-02-15T23:18:07.494Z,0
2023-02-15T23:21:08.427Z,0
2023-02-15T23:24:07.584Z,0
2023-02-15T23:27:07.564Z,0
2023-02-15T23:30:07.762Z,0
2023-02-15T23:33:07.516Z,0
2023-02-15T23:36:07.515Z,0
2023-02-15T23:39:07.553Z,0
2023-02-15T23:42:07.559Z,0
2023-02-15T23:45:07.615Z,0
2023-02-15T23:48:07.540Z,0
2023-02-15T23:51:08.349Z,0
2023-02-15T23:54:07.507Z,0
2023-02-15T23:57:07.523Z,0
